Willow Grove, Pennsylvania
Current Conditions -  °F | °C
As of 9:54 AM on Thursday 18 Dec 2014 (Local Time) from KPNE Reporting Station
Overcast Overcast  
Wind Chill: 31°   Ceiling: 4000
Heat Index: 39°   Visibility: 10mi
Dew Point: 20°   Wind: 14mph
Humidity: 46%   Direction: 300°WNW
Pressure: 30.09"   Gusts: NA
Location:  40.15°N, 75.12°W
Report Text: KPNE 181454Z AUTO 30012KT 10SM OVC040 04/M07 A3009 RMK AO2 SLP191 T00391067 53015 TSNO $
Loading
Personal Weather Stations






























Interactive Weather Map New forecast layout! Learn more

10-Day Weather Forecast

Advertisements
Track Severe Weather on mobile